createdAt,value
2022-08-26T00:01:42.074Z,100.00
2022-08-26T00:04:11.940Z,100.00
2022-08-26T00:06:39.037Z,100.00
2022-08-26T00:09:09.452Z,100.00
2022-08-26T00:11:36.241Z,100.00
2022-08-26T00:14:03.001Z,100.00
2022-08-26T00:16:30.049Z,100.00
2022-08-26T00:18:56.924Z,100.00
2022-08-26T00:21:23.918Z,100.00
2022-08-26T00:23:50.580Z,100.00
2022-08-26T00:26:17.350Z,100.00
2022-08-26T00:28:44.483Z,100.00
2022-08-26T00:31:11.373Z,100.00
2022-08-26T00:33:39.613Z,100.00
2022-08-26T00:36:07.207Z,100.00
2022-08-26T00:38:35.280Z,100.00
2022-08-26T00:41:04.906Z,100.00
2022-08-26T00:43:46.139Z,100.00
2022-08-26T00:46:17.547Z,100.00
2022-08-26T00:48:47.806Z,100.00
2022-08-26T00:51:19.453Z,100.00
2022-08-26T00:53:52.332Z,100.00
2022-08-26T00:56:32.353Z,100.00
2022-08-26T00:59:01.902Z,100.00
2022-08-26T01:01:31.261Z,100.00
2022-08-26T01:03:59.950Z,100.00
2022-08-26T01:06:28.043Z,100.00
2022-08-26T01:08:56.088Z,100.00
2022-08-26T01:11:24.334Z,100.00
2022-08-26T01:14:00.034Z,100.00
2022-08-26T01:16:26.723Z,100.00
2022-08-26T01:18:55.737Z,100.00
2022-08-26T01:21:27.236Z,99.59
2022-08-26T01:23:57.404Z,100.00
2022-08-26T01:26:31.378Z,100.00
2022-08-26T01:29:00.958Z,100.00
2022-08-26T01:31:30.511Z,100.00
2022-08-26T01:34:35.031Z,100.00
2022-08-26T01:37:05.352Z,100.00
2022-08-26T01:39:32.775Z,100.00
2022-08-26T01:42:03.242Z,100.00
2022-08-26T01:44:36.431Z,100.00
2022-08-26T01:47:05.154Z,100.00
2022-08-26T01:49:34.476Z,100.00
2022-08-26T01:52:03.763Z,100.00
2022-08-26T01:54:31.425Z,100.00
2022-08-26T01:56:58.918Z,100.00
2022-08-26T01:59:25.657Z,100.00
2022-08-26T02:01:53.058Z,100.00
2022-08-26T02:04:28.742Z,100.00
2022-08-26T02:06:56.956Z,100.00
2022-08-26T02:09:26.546Z,100.00
2022-08-26T02:11:53.853Z,100.00
2022-08-26T02:14:27.143Z,100.00
2022-08-26T02:16:55.217Z,100.00
2022-08-26T02:19:32.696Z,100.00
2022-08-26T02:22:01.676Z,100.00
2022-08-26T02:24:50.290Z,100.00
2022-08-26T02:27:23.780Z,100.00
2022-08-26T02:30:17.345Z,100.00
2022-08-26T02:32:44.502Z,100.00
2022-08-26T02:35:12.789Z,100.00
2022-08-26T02:37:41.866Z,100.00
2022-08-26T02:40:10.637Z,100.00
2022-08-26T02:42:37.710Z,100.00
2022-08-26T02:45:05.507Z,100.00
2022-08-26T02:47:34.478Z,100.00
2022-08-26T02:50:01.850Z,100.00
2022-08-26T02:52:28.599Z,100.00
2022-08-26T02:54:55.280Z,100.00
2022-08-26T02:57:22.119Z,100.00
2022-08-26T02:59:49.382Z,100.00
2022-08-26T03:02:17.354Z,100.00
2022-08-26T03:04:58.110Z,100.00
2022-08-26T03:07:28.507Z,100.00
2022-08-26T03:09:55.099Z,100.00
2022-08-26T03:12:21.955Z,100.00
2022-08-26T03:14:48.597Z,100.00
2022-08-26T03:17:15.978Z,100.00
2022-08-26T03:19:42.601Z,100.00
2022-08-26T03:22:09.241Z,100.00
2022-08-26T03:24:37.775Z,100.00
2022-08-26T03:27:05.914Z,100.00
2022-08-26T03:29:52.638Z,100.00
2022-08-26T03:32:20.749Z,100.00
2022-08-26T03:34:47.560Z,100.00
2022-08-26T03:37:14.778Z,100.00
2022-08-26T03:39:41.797Z,100.00
2022-08-26T03:42:08.374Z,100.00
2022-08-26T03:44:39.197Z,100.00
2022-08-26T03:47:09.045Z,100.00
2022-08-26T03:49:35.998Z,100.00
2022-08-26T03:52:04.202Z,100.00
2022-08-26T03:54:30.917Z,100.00
2022-08-26T03:56:57.487Z,100.00
2022-08-26T03:59:24.050Z,96.02
2022-08-26T04:01:51.372Z,94.41
2022-08-26T04:04:18.217Z,93.24
2022-08-26T04:06:50.149Z,91.97
2022-08-26T04:09:21.066Z,89.86
2022-08-26T04:11:50.490Z,91.29
2022-08-26T04:14:20.392Z,88.09
2022-08-26T04:16:47.329Z,86.87
2022-08-26T04:19:15.672Z,90.08
2022-08-26T04:21:42.659Z,85.13
2022-08-26T04:24:12.218Z,88.60
2022-08-26T04:26:43.642Z,88.83
2022-08-26T04:29:13.363Z,85.91
2022-08-26T04:31:40.910Z,85.32
2022-08-26T04:34:08.186Z,80.88
2022-08-26T04:36:37.820Z,83.32
2022-08-26T04:39:04.794Z,84.43
2022-08-26T04:41:31.738Z,79.64
2022-08-26T04:43:58.386Z,80.81
2022-08-26T04:46:25.796Z,83.95
2022-08-26T04:48:53.639Z,83.21
2022-08-26T04:51:23.720Z,85.07
2022-08-26T04:53:50.298Z,84.73
2022-08-26T04:56:16.845Z,83.04
2022-08-26T04:58:43.602Z,81.97
2022-08-26T05:01:10.480Z,80.98
2022-08-26T05:03:37.232Z,86.38
2022-08-26T05:06:07.574Z,88.81
2022-08-26T05:08:36.588Z,87.99
2022-08-26T05:11:04.585Z,89.02
2022-08-26T05:13:32.558Z,92.89
2022-08-26T05:16:09.075Z,94.68
2022-08-26T05:18:39.595Z,95.32
2022-08-26T05:21:07.203Z,94.30
2022-08-26T05:23:35.970Z,95.36
2022-08-26T05:26:04.931Z,90.58
2022-08-26T05:28:31.746Z,91.26
2022-08-26T05:30:58.962Z,89.81
2022-08-26T05:33:25.644Z,89.57
2022-08-26T05:35:52.706Z,86.90
2022-08-26T05:38:21.545Z,87.17
2022-08-26T05:40:52.754Z,80.58
2022-08-26T05:43:20.413Z,81.54
2022-08-26T05:45:49.820Z,79.79
2022-08-26T05:48:18.483Z,76.55
2022-08-26T05:50:51.210Z,72.26
2022-08-26T05:53:20.212Z,76.47
2022-08-26T05:55:51.027Z,74.29
2022-08-26T05:58:22.934Z,70.85
2022-08-26T06:01:05.179Z,71.03
2022-08-26T06:03:34.000Z,70.76
2022-08-26T06:06:05.546Z,68.21
2022-08-26T06:08:33.757Z,66.27
2022-08-26T06:11:03.200Z,67.50
2022-08-26T06:13:32.654Z,64.97
2022-08-26T06:16:07.829Z,66.27
2022-08-26T06:18:37.718Z,63.44
2022-08-26T06:21:20.600Z,61.20
2022-08-26T06:24:07.415Z,63.16
2022-08-26T06:26:35.361Z,61.63
2022-08-26T06:29:04.856Z,61.57
2022-08-26T06:31:32.836Z,61.58
2022-08-26T06:33:59.871Z,57.45
2022-08-26T06:36:28.938Z,58.97
2022-08-26T06:38:59.153Z,58.31
2022-08-26T06:41:25.864Z,58.27
2022-08-26T06:43:52.870Z,58.52
2022-08-26T06:46:21.907Z,57.06
2022-08-26T06:48:49.076Z,55.36
2022-08-26T06:51:22.424Z,55.11
2022-08-26T06:53:52.479Z,55.53
2022-08-26T06:56:22.426Z,55.21
2022-08-26T06:58:49.632Z,53.89
2022-08-26T07:01:18.781Z,55.27
2022-08-26T07:03:47.553Z,56.95
2022-08-26T07:06:15.147Z,57.34
2022-08-26T07:08:43.349Z,54.95
2022-08-26T07:11:11.257Z,56.52
2022-08-26T07:13:39.374Z,54.98
2022-08-26T07:16:14.428Z,56.62
2022-08-26T07:18:42.401Z,55.62
2022-08-26T07:21:14.762Z,51.48
2022-08-26T07:23:41.583Z,52.29
2022-08-26T07:26:12.330Z,52.28
2022-08-26T07:28:39.433Z,53.56
2022-08-26T07:31:09.972Z,51.90
2022-08-26T07:33:37.514Z,49.98
2022-08-26T07:36:07.100Z,51.56
2022-08-26T07:38:35.042Z,50.88
2022-08-26T07:41:01.938Z,50.83
2022-08-26T07:43:29.577Z,50.85
2022-08-26T07:45:56.415Z,47.70
2022-08-26T07:48:23.209Z,47.24
2022-08-26T07:50:50.787Z,48.31
2022-08-26T07:53:21.436Z,47.38
2022-08-26T07:55:51.197Z,46.77
2022-08-26T07:58:19.077Z,47.17
2022-08-26T08:00:46.415Z,46.73
2022-08-26T08:03:15.090Z,44.95
2022-08-26T08:05:42.384Z,45.87
2022-08-26T08:08:25.682Z,46.15
2022-08-26T08:10:55.483Z,45.84
2022-08-26T08:13:23.710Z,45.79
2022-08-26T08:15:50.474Z,45.47
2022-08-26T08:18:17.927Z,45.68
2022-08-26T08:20:54.707Z,43.79
2022-08-26T08:23:32.012Z,43.84
2022-08-26T08:26:09.162Z,43.32
2022-08-26T08:28:38.818Z,42.94
2022-08-26T08:31:06.306Z,43.24
2022-08-26T08:33:33.826Z,43.82
2022-08-26T08:36:00.915Z,43.46
2022-08-26T08:38:28.765Z,44.08
2022-08-26T08:40:55.378Z,44.00
2022-08-26T08:43:42.485Z,43.69
2022-08-26T08:46:12.672Z,43.66
2022-08-26T08:48:47.057Z,41.67
2022-08-26T08:51:17.010Z,39.83
2022-08-26T08:53:46.137Z,40.30
2022-08-26T08:56:26.845Z,39.89
2022-08-26T08:59:10.575Z,39.69
2022-08-26T09:01:52.573Z,39.70
2022-08-26T09:04:23.707Z,39.27
2022-08-26T09:06:54.109Z,39.16
2022-08-26T09:09:32.861Z,38.88
2022-08-26T09:12:01.518Z,38.93
2022-08-26T09:14:28.883Z,38.55
2022-08-26T09:17:12.410Z,36.95
2022-08-26T09:19:52.177Z,37.13
2022-08-26T09:22:36.501Z,37.85
2022-08-26T09:25:06.524Z,36.55
2022-08-26T09:27:40.716Z,35.23
2022-08-26T09:30:11.527Z,34.93
2022-08-26T09:32:39.013Z,32.67
2022-08-26T09:35:09.658Z,32.59
2022-08-26T09:37:54.353Z,32.49
2022-08-26T09:40:22.478Z,32.51
2022-08-26T09:43:09.383Z,31.12
2022-08-26T09:45:36.558Z,31.26
2022-08-26T09:48:03.505Z,31.47
2022-08-26T09:51:01.007Z,31.62
2022-08-26T09:53:31.161Z,30.69
2022-08-26T09:56:33.082Z,31.52
2022-08-26T09:59:00.611Z,31.56
2022-08-26T10:01:35.452Z,32.47
2022-08-26T10:04:08.378Z,31.33
2022-08-26T10:06:42.341Z,30.86
2022-08-26T10:09:12.490Z,31.41
2022-08-26T10:11:49.030Z,31.01
2022-08-26T10:14:31.231Z,30.92
2022-08-26T10:17:38.134Z,30.21
2022-08-26T10:20:23.776Z,29.99
2022-08-26T10:23:01.144Z,29.87
2022-08-26T10:25:40.794Z,29.15
2022-08-26T10:28:18.118Z,29.27
2022-08-26T10:31:17.635Z,28.93
2022-08-26T10:33:46.733Z,28.78
2022-08-26T10:36:46.931Z,27.43
2022-08-26T10:39:26.897Z,25.80
2022-08-26T10:42:04.044Z,24.86
2022-08-26T10:44:34.279Z,24.57
2022-08-26T10:47:10.353Z,24.62
2022-08-26T10:49:37.435Z,24.72
2022-08-26T10:52:35.183Z,25.42
2022-08-26T10:55:09.103Z,24.58
2022-08-26T10:57:46.754Z,23.62
2022-08-26T11:00:37.032Z,23.87
2022-08-26T11:03:21.821Z,24.75
2022-08-26T11:06:16.033Z,24.39
2022-08-26T11:08:59.839Z,24.58
2022-08-26T11:11:41.834Z,24.27
2022-08-26T11:14:29.349Z,25.19
2022-08-26T11:16:58.725Z,25.46
2022-08-26T11:19:58.794Z,26.24
2022-08-26T11:22:31.201Z,26.40
2022-08-26T11:24:57.787Z,26.71
2022-08-26T11:27:24.949Z,27.08
2022-08-26T11:30:12.580Z,27.78
2022-08-26T11:32:40.054Z,28.05
2022-08-26T11:35:06.761Z,28.01
2022-08-26T11:37:42.960Z,28.41
2022-08-26T11:40:13.680Z,28.05
2022-08-26T11:43:02.453Z,28.83
2022-08-26T11:45:44.325Z,29.06
2022-08-26T11:48:23.859Z,29.33
2022-08-26T11:51:02.990Z,28.13
2022-08-26T11:53:32.727Z,28.40
2022-08-26T11:56:03.095Z,28.95
2022-08-26T11:58:30.116Z,27.38
2022-08-26T12:01:00.707Z,26.23
2022-08-26T12:03:45.213Z,24.84
2022-08-26T12:06:24.594Z,24.62
2022-08-26T12:08:52.562Z,26.21
2022-08-26T12:11:28.898Z,26.00
2022-08-26T12:14:08.905Z,25.77
2022-08-26T12:16:39.840Z,25.53
2022-08-26T12:19:32.737Z,27.22
2022-08-26T12:22:22.970Z,25.61
2022-08-26T12:24:51.171Z,25.67
2022-08-26T12:27:22.921Z,25.70
2022-08-26T12:30:08.811Z,25.91
2022-08-26T12:32:57.697Z,26.44
2022-08-26T12:35:25.775Z,26.35
2022-08-26T12:37:54.029Z,26.49
2022-08-26T12:40:39.839Z,26.92
2022-08-26T12:43:07.553Z,27.59
2022-08-26T12:45:43.632Z,27.30
2022-08-26T12:48:13.550Z,26.62
2022-08-26T12:50:47.831Z,25.40
2022-08-26T12:53:24.315Z,24.80
2022-08-26T12:55:56.134Z,26.54
2022-08-26T12:58:28.444Z,25.79
2022-08-26T13:01:22.443Z,26.13
2022-08-26T13:03:49.686Z,26.13
2022-08-26T13:06:22.401Z,27.23
2022-08-26T13:09:04.342Z,26.92
2022-08-26T13:11:32.845Z,27.02
2022-08-26T13:14:10.227Z,27.69
2022-08-26T13:16:38.092Z,27.35
2022-08-26T13:19:10.766Z,28.27
2022-08-26T13:21:43.924Z,29.37
2022-08-26T13:24:16.401Z,27.63
2022-08-26T13:26:45.194Z,27.20
2022-08-26T13:29:12.428Z,26.85
2022-08-26T13:31:41.333Z,27.03
2022-08-26T13:34:09.831Z,26.96
2022-08-26T13:36:36.618Z,27.13
2022-08-26T13:39:05.615Z,27.81
2022-08-26T13:41:32.494Z,27.64
2022-08-26T13:43:59.710Z,27.22
2022-08-26T13:46:28.138Z,26.34
2022-08-26T13:48:55.898Z,27.17
2022-08-26T13:51:22.927Z,27.08
2022-08-26T13:53:50.360Z,27.40
2022-08-26T13:56:17.078Z,27.29
2022-08-26T13:58:44.096Z,27.27
2022-08-26T14:01:13.360Z,27.37
2022-08-26T14:03:40.154Z,27.60
2022-08-26T14:06:06.868Z,27.65
2022-08-26T14:08:33.531Z,27.87
2022-08-26T14:11:00.186Z,28.14
2022-08-26T14:13:27.282Z,28.64
2022-08-26T14:15:54.229Z,29.61
2022-08-26T14:18:23.898Z,27.86
2022-08-26T14:20:55.232Z,27.68
2022-08-26T14:23:22.653Z,27.72
2022-08-26T14:25:49.537Z,27.83
2022-08-26T14:28:16.353Z,27.58
2022-08-26T14:30:44.959Z,27.10
2022-08-26T14:33:14.149Z,27.57
2022-08-26T14:35:41.461Z,27.30
2022-08-26T14:38:16.595Z,28.17
2022-08-26T14:40:46.531Z,28.04
2022-08-26T14:43:15.274Z,27.80
2022-08-26T14:45:43.731Z,28.83
2022-08-26T14:48:10.588Z,28.64
2022-08-26T14:50:37.253Z,28.72
2022-08-26T14:53:22.462Z,29.43
2022-08-26T14:55:50.579Z,28.99
2022-08-26T14:58:17.290Z,28.25
2022-08-26T15:00:44.238Z,28.25
2022-08-26T15:03:11.204Z,28.60
2022-08-26T15:05:39.909Z,28.56
2022-08-26T15:08:10.505Z,29.02
2022-08-26T15:10:37.744Z,29.24
2022-08-26T15:13:04.812Z,28.70
2022-08-26T15:15:31.466Z,29.33
2022-08-26T15:17:58.201Z,28.79
2022-08-26T15:20:25.363Z,28.87
2022-08-26T15:22:52.011Z,28.82
2022-08-26T15:25:20.061Z,28.73
2022-08-26T15:27:46.807Z,27.70
2022-08-26T15:30:13.631Z,27.75
2022-08-26T15:32:40.571Z,27.79
2022-08-26T15:35:09.338Z,27.59
2022-08-26T15:37:36.303Z,27.91
2022-08-26T15:40:03.744Z,27.92
2022-08-26T15:42:30.444Z,28.23
2022-08-26T15:44:57.159Z,27.75
2022-08-26T15:47:23.981Z,27.95
2022-08-26T15:49:50.765Z,28.15
2022-08-26T15:52:17.756Z,28.24
2022-08-26T15:54:44.480Z,28.42
2022-08-26T15:57:12.379Z,28.52
2022-08-26T15:59:40.407Z,28.63
2022-08-26T16:02:07.543Z,28.20
2022-08-26T16:04:34.515Z,28.00
2022-08-26T16:07:01.427Z,28.37
2022-08-26T16:09:28.869Z,28.99
2022-08-26T16:11:56.305Z,29.11
2022-08-26T16:14:23.557Z,28.88
2022-08-26T16:16:50.831Z,29.15
2022-08-26T16:19:17.526Z,29.63
2022-08-26T16:21:44.845Z,29.73
2022-08-26T16:24:12.697Z,30.18
2022-08-26T16:26:40.844Z,30.07
2022-08-26T16:29:11.266Z,30.37
2022-08-26T16:31:38.510Z,30.21
2022-08-26T16:34:06.458Z,30.70
2022-08-26T16:36:33.630Z,30.58
2022-08-26T16:39:00.235Z,30.91
2022-08-26T16:41:29.328Z,31.01
2022-08-26T16:43:56.365Z,31.02
2022-08-26T16:46:25.755Z,31.25
2022-08-26T16:48:57.265Z,31.27
2022-08-26T16:51:27.216Z,31.44
2022-08-26T16:53:55.539Z,31.78
2022-08-26T16:56:30.640Z,31.54
2022-08-26T16:59:01.229Z,31.79
2022-08-26T17:01:28.723Z,31.90
2022-08-26T17:03:55.464Z,32.45
2022-08-26T17:06:22.056Z,32.23
2022-08-26T17:08:49.252Z,32.15
2022-08-26T17:11:16.132Z,32.35
2022-08-26T17:13:42.909Z,32.42
2022-08-26T17:16:11.073Z,32.71
2022-08-26T17:18:38.179Z,32.64
2022-08-26T17:21:08.315Z,32.76
2022-08-26T17:23:36.101Z,32.75
2022-08-26T17:26:03.002Z,32.60
2022-08-26T17:28:29.920Z,32.67
2022-08-26T17:31:00.046Z,32.72
2022-08-26T17:33:27.471Z,32.99
2022-08-26T17:35:55.527Z,33.19
2022-08-26T17:38:22.904Z,33.18
2022-08-26T17:40:50.059Z,33.24
2022-08-26T17:43:17.245Z,33.12
2022-08-26T17:45:44.290Z,33.33
2022-08-26T17:48:11.222Z,33.60
2022-08-26T17:50:42.105Z,33.42
2022-08-26T17:53:18.503Z,33.39
2022-08-26T17:55:46.833Z,33.72
2022-08-26T17:58:14.617Z,33.99
2022-08-26T18:00:44.774Z,34.09
2022-08-26T18:03:11.648Z,34.00
2022-08-26T18:05:38.346Z,34.13
2022-08-26T18:08:05.205Z,34.49
2022-08-26T18:10:32.157Z,34.66
2022-08-26T18:12:58.706Z,34.65
2022-08-26T18:15:25.399Z,35.10
2022-08-26T18:17:52.074Z,35.20
2022-08-26T18:20:19.622Z,35.08
2022-08-26T18:22:47.878Z,35.37
2022-08-26T18:25:19.002Z,35.35
2022-08-26T18:27:45.566Z,35.62
2022-08-26T18:30:16.744Z,35.70
2022-08-26T18:32:43.611Z,35.93
2022-08-26T18:35:11.000Z,36.09
2022-08-26T18:37:37.649Z,36.36
2022-08-26T18:40:07.234Z,36.34
2022-08-26T18:42:34.265Z,36.34
2022-08-26T18:45:01.243Z,36.32
2022-08-26T18:47:28.108Z,36.27
2022-08-26T18:49:54.946Z,36.46
2022-08-26T18:52:21.482Z,37.75
2022-08-26T18:54:50.418Z,37.95
2022-08-26T18:57:17.295Z,38.53
2022-08-26T18:59:44.014Z,39.20
2022-08-26T19:02:10.858Z,39.98
2022-08-26T19:04:41.287Z,40.64
2022-08-26T19:07:08.779Z,41.06
2022-08-26T19:09:36.046Z,41.58
2022-08-26T19:12:03.454Z,42.10
2022-08-26T19:14:30.295Z,42.53
2022-08-26T19:16:56.980Z,43.25
2022-08-26T19:19:24.123Z,43.44
2022-08-26T19:21:51.821Z,43.26
2022-08-26T19:24:19.329Z,43.59
2022-08-26T19:26:48.802Z,42.56
2022-08-26T19:31:49.377Z,42.33
2022-08-26T19:34:17.490Z,42.06
2022-08-26T19:36:47.695Z,42.50
2022-08-26T19:39:14.366Z,42.96
2022-08-26T19:41:41.209Z,42.73
2022-08-26T19:44:40.513Z,42.87
2022-08-26T19:47:08.910Z,42.77
2022-08-26T19:49:35.511Z,42.87
2022-08-26T19:52:03.112Z,42.39
2022-08-26T19:54:30.241Z,42.65
2022-08-26T19:56:57.411Z,42.36
2022-08-26T19:59:24.319Z,42.05
2022-08-26T20:02:01.348Z,41.74
2022-08-26T20:04:32.023Z,41.65
2022-08-26T20:07:00.552Z,41.83
2022-08-26T20:09:28.881Z,41.68
2022-08-26T20:11:56.794Z,42.21
2022-08-26T20:14:25.241Z,42.18
2022-08-26T20:16:52.005Z,42.66
2022-08-26T20:19:37.849Z,42.58
2022-08-26T20:22:05.124Z,42.79
2022-08-26T20:24:32.617Z,42.81
2022-08-26T20:26:59.455Z,43.28
2022-08-26T20:29:26.573Z,43.39
2022-08-26T20:31:54.667Z,43.06
2022-08-26T20:34:21.727Z,42.49
2022-08-26T20:36:49.749Z,42.56
2022-08-26T20:39:18.352Z,42.31
2022-08-26T20:41:45.480Z,42.19
2022-08-26T20:44:13.828Z,41.60
2022-08-26T20:46:40.847Z,41.65
2022-08-26T20:49:07.753Z,42.09
2022-08-26T20:51:36.271Z,42.06
2022-08-26T20:54:04.969Z,42.63
2022-08-26T20:56:31.664Z,42.90
2022-08-26T20:59:00.581Z,42.78
2022-08-26T21:01:30.851Z,42.57
2022-08-26T21:03:57.731Z,42.83
2022-08-26T21:06:24.884Z,43.61
2022-08-26T21:08:51.701Z,42.93
2022-08-26T21:11:20.093Z,42.86
2022-08-26T21:14:17.390Z,43.05
2022-08-26T21:16:36.257Z,42.88
2022-08-26T21:19:04.904Z,42.42
2022-08-26T21:21:31.988Z,42.87
2022-08-26T21:23:59.037Z,42.97
2022-08-26T21:26:25.764Z,42.87
2022-08-26T21:28:52.952Z,43.38
2022-08-26T21:31:22.003Z,43.16
2022-08-26T21:33:48.918Z,43.49
2022-08-26T21:36:15.611Z,43.35
2022-08-26T21:38:42.575Z,43.90
2022-08-26T21:41:22.016Z,43.60
2022-08-26T21:43:53.562Z,43.61
2022-08-26T21:46:23.379Z,43.49
2022-08-26T21:48:52.361Z,44.01
2022-08-26T21:51:21.788Z,44.47
2022-08-26T21:53:48.865Z,45.00
2022-08-26T21:56:17.416Z,44.42
2022-08-26T21:58:44.627Z,44.66
2022-08-26T22:01:18.072Z,44.94
2022-08-26T22:03:47.590Z,45.03
2022-08-26T22:06:16.236Z,45.27
2022-08-26T22:08:42.971Z,44.86
2022-08-26T22:11:10.472Z,45.27
2022-08-26T22:13:38.897Z,45.50
2022-08-26T22:16:06.461Z,45.67
2022-08-26T22:18:34.023Z,45.47
2022-08-26T22:21:03.107Z,45.81
2022-08-26T22:23:30.305Z,45.58
2022-08-26T22:25:57.314Z,45.82
2022-08-26T22:28:23.955Z,46.46
2022-08-26T22:30:50.872Z,46.25
2022-08-26T22:33:17.986Z,46.07
2022-08-26T22:35:47.825Z,46.35
2022-08-26T22:38:15.048Z,46.84
2022-08-26T22:40:48.454Z,47.48
2022-08-26T22:43:15.533Z,46.94
2022-08-26T22:45:44.419Z,46.87
2022-08-26T22:48:15.563Z,47.25
2022-08-26T22:50:43.673Z,47.05
2022-08-26T22:53:10.573Z,47.08
2022-08-26T22:55:37.485Z,46.94
2022-08-26T22:58:05.086Z,46.76
2022-08-26T23:00:32.621Z,47.26
2022-08-26T23:02:59.627Z,46.75
2022-08-26T23:05:26.330Z,47.35
2022-08-26T23:07:54.069Z,46.91
2022-08-26T23:10:20.853Z,46.53
2022-08-26T23:12:47.484Z,46.79
2022-08-26T23:15:14.600Z,45.89
2022-08-26T23:17:43.008Z,45.79
2022-08-26T23:20:11.687Z,45.77
2022-08-26T23:22:39.402Z,45.40
2022-08-26T23:25:08.250Z,45.08
2022-08-26T23:27:39.151Z,45.65
2022-08-26T23:30:07.759Z,45.75
2022-08-26T23:32:34.431Z,45.54
2022-08-26T23:35:01.590Z,45.30
2022-08-26T23:37:32.399Z,45.85
2022-08-26T23:40:01.538Z,45.56
2022-08-26T23:42:29.003Z,45.79
2022-08-26T23:44:56.666Z,45.86
2022-08-26T23:47:23.351Z,46.14
2022-08-26T23:49:49.964Z,46.01
2022-08-26T23:52:35.187Z,46.00
2022-08-26T23:55:02.168Z,45.98
2022-08-26T23:57:28.771Z,45.85
2022-08-26T23:59:55.427Z,46.48
